createdAt,value
2019-04-23T00:00:29.346Z,52.1782
2019-04-23T00:01:58.376Z,51.9310
2019-04-23T00:02:52.427Z,51.8395
2019-04-23T00:03:51.609Z,51.4107
2019-04-23T00:04:59.736Z,51.4519
2019-04-23T00:06:19.028Z,51.4595
2019-04-23T00:07:44.349Z,51.8532
2019-04-23T00:08:39.597Z,51.7678
2019-04-23T00:09:39.877Z,52.0226
2019-04-23T00:10:43.036Z,51.9371
2019-04-23T00:11:51.414Z,52.1843
2019-04-23T00:14:15.162Z,52.3629
2019-04-23T00:15:35.632Z,52.6909
2019-04-23T00:16:26.492Z,52.8252
2019-04-23T00:17:37.351Z,52.7779
2019-04-23T00:18:42.658Z,52.0470
2019-04-23T00:19:50.228Z,52.1569
2019-04-23T00:20:57.846Z,52.1691
2019-04-23T00:22:11.000Z,52.4590
2019-04-23T00:23:11.056Z,52.9564
2019-04-23T00:24:28.215Z,53.0526
2019-04-23T00:25:45.026Z,53.3745
2019-04-23T00:26:36.600Z,53.7774
2019-04-23T00:27:51.825Z,54.2611
2019-04-23T00:28:58.892Z,54.5037
2019-04-23T00:31:13.320Z,54.9538
2019-04-23T00:32:23.139Z,55.2285
2019-04-23T00:33:25.607Z,55.3689
2019-04-23T00:34:36.152Z,55.5673
2019-04-23T00:35:44.079Z,55.9091
2019-04-23T00:36:51.509Z,56.0739
2019-04-23T00:37:59.981Z,56.2310
2019-04-23T00:39:06.280Z,56.1975
2019-04-23T00:40:10.836Z,56.5560
2019-04-23T00:41:25.352Z,56.2951
2019-04-23T00:42:36.797Z,55.8602
2019-04-23T00:43:35.924Z,55.8511
2019-04-23T00:44:46.263Z,55.6115
2019-04-23T00:45:53.526Z,55.9060
2019-04-23T00:47:06.977Z,55.9457
2019-04-23T00:48:17.086Z,55.8968
2019-04-23T00:49:21.222Z,56.2036
2019-04-23T00:50:48.011Z,56.4218
2019-04-23T00:51:33.093Z,56.6888
2019-04-23T00:52:38.884Z,57.0779
2019-04-23T00:53:43.917Z,57.5708
2019-04-23T00:55:04.366Z,57.4975
2019-04-23T00:56:19.032Z,57.4655
2019-04-23T00:57:22.592Z,57.6822
2019-04-23T00:59:27.828Z,57.7493
2019-04-23T01:00:41.973Z,57.6715
2019-04-23T01:01:49.581Z,58.0560
2019-04-23T01:02:53.219Z,58.0209
2019-04-23T01:04:02.251Z,57.7584
2019-04-23T01:05:14.834Z,57.6944
2019-04-23T01:06:19.356Z,57.3877
2019-04-23T01:07:24.275Z,57.5341
2019-04-23T01:08:31.764Z,57.4395
2019-04-23T01:09:49.244Z,57.5891
2019-04-23T01:10:52.282Z,57.6959
2019-04-23T01:12:03.088Z,57.9461
2019-04-23T01:13:08.868Z,57.8042
2019-04-23T01:14:15.803Z,57.7722
2019-04-23T01:15:26.254Z,58.1399
2019-04-23T01:16:28.278Z,58.1628
2019-04-23T01:17:39.852Z,58.1384
2019-04-23T01:19:49.515Z,58.1979
2019-04-23T01:20:53.521Z,58.2177
2019-04-23T01:21:47.512Z,57.9965
2019-04-23T01:22:50.907Z,57.9919
2019-04-23T01:23:59.833Z,57.5067
2019-04-23T01:25:11.041Z,57.5891
2019-04-23T01:26:30.855Z,57.5479
2019-04-23T01:27:55.836Z,57.2961
2019-04-23T01:28:57.415Z,57.3434
2019-04-23T01:30:04.742Z,57.3617
2019-04-23T01:31:09.236Z,57.2839
2019-04-23T01:32:18.753Z,56.9070
2019-04-23T01:33:29.628Z,57.1038
2019-04-23T01:34:31.282Z,57.6318
2019-04-23T01:35:36.426Z,57.9232
2019-04-23T01:36:46.458Z,58.1445
2019-04-23T01:37:55.675Z,58.5779
2019-04-23T01:39:00.239Z,58.6374
2019-04-23T01:40:12.135Z,58.6664
2019-04-23T01:41:20.204Z,58.8861
2019-04-23T01:42:38.876Z,58.9685
2019-04-23T01:43:36.534Z,58.5595
2019-04-23T01:44:50.390Z,58.9532
2019-04-23T01:45:40.944Z,58.8449
2019-04-23T01:47:00.862Z,58.2040
2019-04-23T01:48:17.875Z,58.6099
2019-04-23T01:49:18.366Z,58.2025
2019-04-23T01:51:34.460Z,58.4192
2019-04-23T01:52:50.567Z,58.8174
2019-04-23T01:53:49.577Z,58.8342
2019-04-23T01:54:54.958Z,59.2554
2019-04-23T01:56:20.392Z,59.4903
2019-04-23T01:57:16.783Z,59.3698
2019-04-23T01:58:37.039Z,59.6277
2019-04-23T01:59:24.501Z,59.9832
2019-04-23T02:00:35.563Z,59.8016
2019-04-23T02:01:47.589Z,59.7696
2019-04-23T02:02:57.610Z,60.0839
2019-04-23T02:04:03.557Z,60.1297
2019-04-23T02:06:16.646Z,59.6551
2019-04-23T02:07:29.564Z,59.7314
2019-04-23T02:08:28.364Z,59.6353
2019-04-23T02:09:43.490Z,59.1608
2019-04-23T02:10:53.633Z,58.8022
2019-04-23T02:11:57.759Z,58.7701
2019-04-23T02:15:24.994Z,57.7691
2019-04-23T02:16:32.776Z,57.7951
2019-04-23T02:17:38.639Z,57.5448
2019-04-23T02:18:44.152Z,57.7859
2019-04-23T02:19:51.753Z,57.8653
2019-04-23T02:20:59.503Z,58.0026
2019-04-23T02:22:05.022Z,58.2208
2019-04-23T02:23:19.878Z,58.6480
2019-04-23T02:24:24.738Z,59.1730
2019-04-23T02:26:38.476Z,58.6099
2019-04-23T02:27:54.414Z,58.6236
2019-04-23T02:30:15.529Z,58.9319
2019-04-23T02:34:51.571Z,58.7106
2019-04-23T02:35:55.771Z,58.8251
2019-04-23T02:37:03.852Z,58.6252
2019-04-23T02:39:00.967Z,57.1283
2019-04-23T02:40:35.375Z,56.9848
2019-04-23T02:41:41.594Z,56.6644
2019-04-23T02:42:55.880Z,56.6186
2019-04-23T02:43:35.508Z,57.0001
2019-04-23T02:44:56.285Z,56.9894
2019-04-23T02:47:29.711Z,57.1771
2019-04-23T02:49:26.955Z,57.6684
2019-04-23T02:52:48.811Z,57.8180
2019-04-23T02:54:04.644Z,57.5311
2019-04-23T02:55:08.723Z,57.3693
2019-04-23T02:56:28.878Z,57.8698
2019-04-23T02:57:20.134Z,57.4975
2019-04-23T02:59:53.785Z,57.6593
2019-04-23T03:01:06.418Z,57.7096
2019-04-23T03:05:38.038Z,57.0916
2019-04-23T03:07:41.007Z,57.0581
2019-04-23T03:09:51.725Z,56.9131
2019-04-23T03:11:20.714Z,56.9619
2019-04-23T03:12:24.888Z,56.5774
2019-04-23T03:16:48.191Z,55.8648
2019-04-23T03:17:49.276Z,56.0510
2019-04-23T03:18:57.597Z,56.3027
2019-04-23T03:20:11.189Z,56.1242
2019-04-23T03:22:14.738Z,55.5032
2019-04-23T03:23:34.530Z,54.9035
2019-04-23T03:24:45.833Z,54.6517
2019-04-23T03:25:35.869Z,54.4778
2019-04-23T03:29:15.858Z,54.2535
2019-04-23T03:32:48.379Z,52.5582
2019-04-23T03:34:42.467Z,52.6513
2019-04-23T03:38:18.878Z,53.0434
2019-04-23T03:39:18.717Z,53.2494
2019-04-23T03:40:43.137Z,53.3227
2019-04-23T03:42:43.102Z,52.9168
2019-04-23T03:47:18.543Z,52.7459
2019-04-23T03:48:28.672Z,53.0861
2019-04-23T03:49:32.853Z,53.4188
2019-04-23T03:50:36.015Z,53.2174
2019-04-23T03:51:52.269Z,52.8420
2019-04-23T03:52:44.674Z,52.8023
2019-04-23T03:55:10.264Z,53.1365
2019-04-23T03:56:26.552Z,53.5607
2019-04-23T03:57:26.945Z,53.5851
2019-04-23T04:01:07.179Z,52.9442
2019-04-23T04:03:27.016Z,53.3776
2019-04-23T04:05:31.406Z,53.6355
2019-04-23T04:08:50.727Z,53.9681
2019-04-23T04:11:25.708Z,54.4991
2019-04-23T04:12:19.139Z,54.1100
2019-04-23T04:13:22.222Z,54.4045
2019-04-23T04:15:53.327Z,54.8394
2019-04-23T04:16:51.069Z,54.7646
2019-04-23T04:18:03.849Z,54.7158
2019-04-23T04:21:28.138Z,55.1461
2019-04-23T04:22:37.490Z,54.8745
2019-04-23T04:23:37.767Z,54.6410
2019-04-23T04:25:08.803Z,54.8470
2019-04-23T04:25:47.681Z,54.7982
2019-04-23T04:29:11.664Z,55.0957
2019-04-23T04:30:21.578Z,55.3780
2019-04-23T04:31:37.438Z,54.3160
2019-04-23T04:32:42.814Z,54.1192
2019-04-23T04:35:14.130Z,54.5739
2019-04-23T04:36:09.496Z,54.4594
2019-04-23T04:38:34.883Z,54.6273
2019-04-23T04:39:26.636Z,54.7097
2019-04-23T04:40:45.670Z,55.1827
2019-04-23T04:41:44.479Z,55.1949
2019-04-23T04:43:02.015Z,55.2468
2019-04-23T04:44:04.909Z,55.6680
2019-04-23T04:45:13.631Z,55.6939
2019-04-23T04:46:21.203Z,55.6619
2019-04-23T04:47:33.888Z,55.8099
2019-04-23T04:49:48.611Z,55.7259
2019-04-23T04:52:03.167Z,56.2203
2019-04-23T04:53:09.892Z,56.1334
2019-04-23T04:54:21.516Z,56.2478
2019-04-23T04:55:21.515Z,56.1746
2019-04-23T04:57:37.241Z,56.0143
2019-04-23T05:05:55.531Z,56.5927
2019-04-23T05:06:46.484Z,56.7834
2019-04-23T05:08:56.614Z,56.4996
2019-04-23T05:14:35.415Z,56.3668
2019-04-23T05:15:39.075Z,56.5499
2019-04-23T05:18:00.307Z,56.8353
2019-04-23T05:22:26.768Z,57.9736
2019-04-23T05:23:33.438Z,58.5931
2019-04-23T05:25:44.742Z,59.2523
2019-04-23T05:26:53.369Z,58.9349
2019-04-23T05:30:22.610Z,58.5290
2019-04-23T05:31:23.261Z,58.5412
2019-04-23T05:32:36.737Z,58.6969
2019-04-23T05:33:46.471Z,58.1216
2019-04-23T05:34:48.321Z,58.2528
2019-04-23T05:36:22.849Z,58.0743
2019-04-23T05:37:06.463Z,58.5382
2019-04-23T05:38:29.200Z,58.9410
2019-04-23T05:39:31.314Z,58.7991
2019-04-23T05:40:37.953Z,59.1012
2019-04-23T05:42:46.842Z,59.0372
2019-04-23T05:45:00.595Z,58.1628
2019-04-23T05:46:17.957Z,58.2315
2019-04-23T05:47:25.473Z,58.3307
2019-04-23T05:48:23.370Z,58.5321
2019-04-23T05:49:31.664Z,58.4863
2019-04-23T05:50:50.577Z,57.9461
2019-04-23T05:51:57.680Z,57.6806
2019-04-23T05:53:05.915Z,58.1033
2019-04-23T05:54:09.118Z,58.0743
2019-04-23T05:55:13.658Z,57.8515
2019-04-23T05:56:24.269Z,57.5250
2019-04-23T05:57:40.372Z,57.1328
2019-04-23T05:58:43.706Z,57.3785
2019-04-23T05:59:51.654Z,57.3388
2019-04-23T06:01:11.430Z,57.1908
2019-04-23T06:02:18.247Z,57.0306
2019-04-23T06:03:16.003Z,56.8124
2019-04-23T06:04:27.099Z,56.8948
2019-04-23T06:05:34.266Z,56.9451
2019-04-23T06:07:49.417Z,56.0479
2019-04-23T06:11:16.989Z,56.3851
2019-04-23T06:12:13.568Z,56.5698
2019-04-23T06:13:26.345Z,56.7422
2019-04-23T06:14:41.030Z,56.7056
2019-04-23T06:15:57.783Z,56.6415
2019-04-23T06:17:02.133Z,56.9635
2019-04-23T06:18:02.245Z,56.8566
2019-04-23T06:20:24.978Z,57.2931
2019-04-23T06:21:25.264Z,57.3785
2019-04-23T06:22:35.211Z,57.0077
2019-04-23T06:23:43.677Z,56.3317
2019-04-23T06:24:45.153Z,55.4101
2019-04-23T06:27:06.747Z,55.0484
2019-04-23T06:28:14.518Z,55.3292
2019-04-23T06:30:34.251Z,54.9569
2019-04-23T06:31:40.879Z,54.6136
2019-04-23T06:32:44.763Z,54.6777
2019-04-23T06:33:54.541Z,55.1492
2019-04-23T06:34:58.167Z,54.2809
2019-04-23T06:37:22.172Z,54.1161
2019-04-23T06:38:46.098Z,54.4350
2019-04-23T06:39:39.639Z,54.6273
2019-04-23T06:40:44.949Z,55.1827
2019-04-23T06:41:52.776Z,55.7504
2019-04-23T06:43:01.274Z,56.4584
2019-04-23T06:45:06.263Z,57.1923
2019-04-23T06:46:20.142Z,57.3373
2019-04-23T06:47:27.739Z,55.6069
2019-04-23T06:48:34.870Z,55.8053
2019-04-23T06:49:44.172Z,55.3933
2019-04-23T06:50:59.265Z,55.3735
2019-04-23T06:53:08.129Z,55.9426
2019-04-23T06:54:19.068Z,55.8083
2019-04-23T06:55:25.499Z,55.8038
2019-04-23T06:56:37.491Z,56.5011
2019-04-23T06:57:38.185Z,56.2936
2019-04-23T06:58:43.259Z,56.2066
2019-04-23T06:59:59.195Z,56.0235
2019-04-23T07:02:17.084Z,54.8058
2019-04-23T07:03:23.277Z,54.5495
2019-04-23T07:05:40.938Z,54.5632
2019-04-23T07:06:47.187Z,55.3658
2019-04-23T07:07:58.369Z,55.5978
2019-04-23T07:09:07.867Z,55.3002
2019-04-23T07:10:03.945Z,55.5795
2019-04-23T07:11:23.615Z,54.5373
2019-04-23T07:12:21.977Z,54.4366
2019-04-23T07:13:45.001Z,54.1238
2019-04-23T07:14:47.678Z,54.0871
2019-04-23T07:16:52.559Z,54.9065
2019-04-23T07:18:04.047Z,54.7692
2019-04-23T07:19:18.576Z,54.3572
2019-04-23T07:20:21.565Z,54.8211
2019-04-23T07:22:46.879Z,54.6548
2019-04-23T07:23:53.884Z,54.3725
2019-04-23T07:24:57.590Z,54.6197
2019-04-23T07:26:09.308Z,54.5495
2019-04-23T07:27:03.270Z,54.8837
2019-04-23T07:28:18.020Z,54.7829
2019-04-23T07:29:25.343Z,54.7921
2019-04-23T07:31:46.040Z,53.8735
2019-04-23T07:32:49.598Z,54.0475
2019-04-23T07:34:01.061Z,54.1527
2019-04-23T07:35:10.443Z,54.2626
2019-04-23T07:36:17.566Z,53.8399
2019-04-23T07:37:19.004Z,53.9147
2019-04-23T07:38:41.711Z,53.2647
2019-04-23T07:39:45.653Z,53.6767
2019-04-23T07:40:41.126Z,53.3974
2019-04-23T07:41:56.815Z,53.8994
2019-04-23T07:43:03.442Z,54.1894
2019-04-23T07:44:12.822Z,53.8308
2019-04-23T07:45:19.320Z,54.0200
2019-04-23T07:46:55.679Z,54.4823
2019-04-23T07:47:33.704Z,54.2351
2019-04-23T07:48:34.401Z,54.1573
2019-04-23T07:50:01.844Z,54.1283
2019-04-23T07:50:55.630Z,54.0978
2019-04-23T07:52:11.004Z,54.2107
2019-04-23T07:54:22.755Z,54.5586
2019-04-23T07:55:34.564Z,54.6242
2019-04-23T07:56:37.288Z,54.8211
2019-04-23T07:57:52.124Z,54.6700
2019-04-23T07:58:44.765Z,54.9218
2019-04-23T08:00:02.417Z,53.9406
2019-04-23T08:01:06.931Z,54.0139
2019-04-23T08:02:23.473Z,54.1009
2019-04-23T08:03:27.359Z,53.6156
2019-04-23T08:04:39.441Z,54.1329
2019-04-23T08:05:38.693Z,54.5602
2019-04-23T08:06:46.434Z,54.1894
2019-04-23T08:07:58.779Z,54.6014
2019-04-23T08:09:02.344Z,54.4991
2019-04-23T08:10:18.914Z,53.9910
2019-04-23T08:11:33.210Z,53.7636
2019-04-23T08:12:31.535Z,53.8262
2019-04-23T08:13:42.042Z,53.5973
2019-04-23T08:14:48.146Z,53.1762
2019-04-23T08:15:53.932Z,53.3791
2019-04-23T08:17:02.077Z,53.4783
2019-04-23T08:18:13.689Z,53.6431
2019-04-23T08:19:15.445Z,53.1121
2019-04-23T08:20:32.286Z,53.2418
2019-04-23T08:22:40.643Z,52.8252
2019-04-23T08:23:49.120Z,52.5811
2019-04-23T08:25:12.833Z,52.8191
2019-04-23T08:26:13.828Z,53.0861
2019-04-23T08:27:12.922Z,52.6925
2019-04-23T08:28:34.032Z,52.8603
2019-04-23T08:30:33.305Z,52.7596
2019-04-23T08:31:52.775Z,52.7047
2019-04-23T08:32:52.136Z,52.9122
2019-04-23T08:34:05.758Z,52.9610
2019-04-23T08:35:06.377Z,52.2576
2019-04-23T08:36:23.746Z,52.7276
2019-04-23T08:37:36.034Z,52.4453
2019-04-23T08:40:57.533Z,52.7245
2019-04-23T08:43:07.531Z,51.6945
2019-04-23T08:44:23.977Z,51.5801
2019-04-23T08:46:33.049Z,51.7220
2019-04-23T08:47:37.749Z,51.5801
2019-04-23T08:50:09.591Z,51.2810
2019-04-23T08:50:57.917Z,51.2032
2019-04-23T08:52:12.178Z,51.6213
2019-04-23T08:53:29.659Z,50.5226
2019-04-23T08:54:37.060Z,50.7774
2019-04-23T08:56:50.025Z,50.0923
2019-04-23T08:57:45.352Z,49.9443
2019-04-23T08:58:59.330Z,49.6483
2019-04-23T09:00:04.015Z,48.8136
2019-04-23T09:01:10.668Z,48.4794
2019-04-23T09:02:30.568Z,48.7739
2019-04-23T09:04:42.069Z,49.1081
2019-04-23T09:05:52.670Z,48.7037
2019-04-23T09:07:00.161Z,48.6900
2019-04-23T09:08:07.195Z,48.4245
2019-04-23T09:09:16.054Z,48.3696
2019-04-23T09:10:20.841Z,47.1077
2019-04-23T09:11:41.054Z,47.5380
2019-04-23T09:12:35.112Z,47.3533
2019-04-23T09:14:51.236Z,46.3157
2019-04-23T09:15:55.889Z,45.7755
2019-04-23T09:17:06.881Z,45.0385
2019-04-23T09:18:16.036Z,44.5075
2019-04-23T09:19:23.284Z,44.0162
2019-04-23T09:21:32.720Z,42.3957
2019-04-23T09:24:03.844Z,42.9862
2019-04-23T09:25:06.024Z,42.0218
2019-04-23T09:26:02.254Z,42.4292
2019-04-23T09:27:22.169Z,42.4277
2019-04-23T09:28:38.591Z,42.3178
2019-04-23T09:29:42.449Z,42.6535
2019-04-23T09:30:42.926Z,42.6123
2019-04-23T09:33:02.421Z,42.9511
2019-04-23T09:34:08.004Z,42.6581
2019-04-23T09:35:20.194Z,43.0701
2019-04-23T09:36:22.372Z,43.3494
2019-04-23T09:38:31.892Z,42.4369
2019-04-23T09:41:08.720Z,42.3331
2019-04-23T09:42:02.328Z,42.5742
2019-04-23T09:45:28.086Z,42.3880
2019-04-23T09:46:32.596Z,42.4414
2019-04-23T09:47:48.296Z,42.4109
2019-04-23T09:48:54.693Z,42.2187
2019-04-23T09:50:06.461Z,42.3407
2019-04-23T09:51:02.450Z,42.3545
2019-04-23T09:52:14.611Z,42.3056
2019-04-23T09:53:24.762Z,42.9038
2019-04-23T09:54:37.874Z,42.1500
2019-04-23T09:58:00.630Z,42.2400
2019-04-23T09:59:08.836Z,41.7334
2019-04-23T10:00:10.752Z,41.6953
2019-04-23T10:01:20.500Z,41.4359
2019-04-23T10:02:17.510Z,41.5900
2019-04-23T10:03:21.144Z,41.2299
2019-04-23T10:04:28.155Z,41.3626
2019-04-23T10:05:32.585Z,40.8957
2019-04-23T10:06:34.553Z,41.1414
2019-04-23T10:07:48.630Z,41.0224
2019-04-23T10:08:52.249Z,40.5066
2019-04-23T10:09:53.532Z,41.4771
2019-04-23T10:10:57.475Z,41.1414
2019-04-23T10:12:00.992Z,41.1612
2019-04-23T10:13:04.377Z,40.3082
2019-04-23T10:14:08.281Z,40.7843
2019-04-23T10:15:21.522Z,41.1246
2019-04-23T10:16:21.439Z,40.8072
2019-04-23T10:17:28.490Z,41.0559
2019-04-23T10:18:31.311Z,40.7340
2019-04-23T10:19:35.037Z,41.3672
2019-04-23T10:20:38.588Z,40.4791
2019-04-23T10:21:43.653Z,40.8316
2019-04-23T10:22:48.240Z,39.9603
2019-04-23T10:23:51.653Z,40.5753
2019-04-23T10:24:55.395Z,40.8804
2019-04-23T10:25:58.362Z,40.9369
2019-04-23T10:27:01.986Z,40.6561
2019-04-23T10:28:08.634Z,40.9369
2019-04-23T10:29:14.049Z,39.0509
2019-04-23T10:30:17.749Z,39.2386
2019-04-23T10:31:22.767Z,39.6170
2019-04-23T10:32:27.324Z,39.4797
2019-04-23T10:33:31.682Z,39.8642
2019-04-23T10:34:47.533Z,39.5590
2019-04-23T10:35:51.521Z,38.7854
2019-04-23T10:36:51.571Z,39.0677
2019-04-23T10:38:03.722Z,39.3896
2019-04-23T10:39:10.630Z,39.5041
2019-04-23T10:40:15.383Z,38.5794
2019-04-23T10:41:20.175Z,39.1775
2019-04-23T10:42:24.701Z,38.3764
2019-04-23T10:43:30.775Z,38.1216
2019-04-23T10:44:35.371Z,37.7401
2019-04-23T10:45:53.874Z,37.9797
2019-04-23T10:47:12.237Z,36.9055
2019-04-23T10:48:31.500Z,37.2366
2019-04-23T10:50:46.166Z,36.7636
2019-04-23T10:51:55.052Z,37.4090
2019-04-23T10:53:05.120Z,37.0886
2019-04-23T10:55:07.933Z,37.2030
2019-04-23T10:56:22.352Z,37.5296
2019-04-23T10:57:23.183Z,35.7244
2019-04-23T10:58:35.286Z,36.2295
2019-04-23T11:00:55.664Z,35.6664
2019-04-23T11:02:15.623Z,35.7305
2019-04-23T11:03:20.344Z,35.8801
2019-04-23T11:04:32.858Z,35.4955
2019-04-23T11:05:30.392Z,35.8434
2019-04-23T11:06:47.171Z,36.1608
2019-04-23T11:08:45.540Z,35.5276
2019-04-23T11:09:58.702Z,35.4650
2019-04-23T11:11:07.952Z,36.2554
2019-04-23T11:12:23.413Z,35.1492
2019-04-23T11:13:25.669Z,34.8318
2019-04-23T11:14:37.718Z,33.9529
2019-04-23T11:19:10.552Z,32.4437
2019-04-23T11:20:17.669Z,32.3705
2019-04-23T11:21:20.751Z,31.6320
2019-04-23T11:23:30.909Z,32.5902
2019-04-23T11:24:42.103Z,30.2358
2019-04-23T11:25:42.826Z,29.7414
2019-04-23T11:26:58.003Z,30.2144
2019-04-23T11:28:11.038Z,31.2581
2019-04-23T11:29:16.379Z,31.9768
2019-04-23T11:30:27.452Z,32.3919
2019-04-23T11:31:41.467Z,32.3186
2019-04-23T11:32:47.119Z,32.5216
2019-04-23T11:33:42.695Z,32.9976
2019-04-23T11:36:18.967Z,32.1126
2019-04-23T11:37:12.914Z,31.3664
2019-04-23T11:38:43.631Z,31.9860
2019-04-23T11:39:23.971Z,32.5292
2019-04-23T11:40:32.817Z,32.9000
2019-04-23T11:41:49.011Z,32.5444
2019-04-23T11:42:49.445Z,32.7276
2019-04-23T11:43:53.431Z,33.0922
2019-04-23T11:45:09.607Z,33.4279
2019-04-23T11:46:32.664Z,33.9132
2019-04-23T11:48:51.966Z,32.8679
2019-04-23T11:52:09.747Z,32.3842
2019-04-23T11:52:57.138Z,33.5470
2019-04-23T11:54:11.614Z,33.4539
2019-04-23T11:55:26.136Z,32.3232
2019-04-23T11:57:02.696Z,32.7001
2019-04-23T11:59:55.046Z,33.4813
2019-04-23T12:01:03.167Z,33.3181
2019-04-23T12:02:01.148Z,33.7438
2019-04-23T12:03:02.501Z,33.6980
2019-04-23T12:04:39.590Z,33.9406
2019-04-23T12:05:37.129Z,33.7652
2019-04-23T12:06:36.948Z,33.7377
2019-04-23T12:08:03.851Z,33.7835
2019-04-23T12:08:50.998Z,34.1405
2019-04-23T12:11:35.426Z,34.1680
2019-04-23T12:12:21.720Z,34.0810
2019-04-23T12:13:28.655Z,34.2245
2019-04-23T12:14:37.314Z,33.8125
2019-04-23T12:15:37.586Z,33.6507
2019-04-23T12:17:05.613Z,34.2138
2019-04-23T12:18:05.357Z,33.9666
2019-04-23T12:19:28.403Z,34.4152
2019-04-23T12:20:13.536Z,32.7962
2019-04-23T12:21:22.115Z,32.7947
2019-04-23T12:22:33.412Z,32.5429
2019-04-23T12:23:48.559Z,32.8817
2019-04-23T12:25:58.613Z,32.0027
2019-04-23T12:27:00.698Z,31.6243
2019-04-23T12:28:06.603Z,31.6838
2019-04-23T12:29:23.735Z,31.3985
2019-04-23T12:30:30.152Z,30.3197
2019-04-23T12:31:34.836Z,31.2901
2019-04-23T12:33:53.599Z,31.4076
2019-04-23T12:36:05.317Z,30.0389
2019-04-23T12:37:19.632Z,30.7546
2019-04-23T12:38:31.234Z,29.7093
2019-04-23T12:39:45.451Z,29.9657
2019-04-23T12:40:37.843Z,29.2790
2019-04-23T12:41:43.306Z,29.7963
2019-04-23T12:43:57.945Z,30.5486
2019-04-23T12:45:16.976Z,30.4555
2019-04-23T12:46:17.693Z,28.3421
2019-04-23T12:47:37.960Z,28.7404
2019-04-23T12:52:02.448Z,27.1199
2019-04-23T12:53:27.064Z,28.8502
2019-04-23T12:54:20.791Z,29.9977
2019-04-23T12:55:36.215Z,26.9551
2019-04-23T12:56:41.588Z,28.2185
2019-04-23T12:58:34.064Z,29.3339
2019-04-23T12:59:50.071Z,29.4163
2019-04-23T13:01:07.216Z,28.8640
2019-04-23T13:02:16.401Z,31.6228
2019-04-23T13:03:21.593Z,28.3101
2019-04-23T13:04:24.616Z,28.8808
2019-04-23T13:06:41.030Z,28.1224
2019-04-23T13:08:54.577Z,30.1091
2019-04-23T13:11:16.265Z,30.4372
2019-04-23T13:12:32.625Z,28.1941
2019-04-23T13:13:28.575Z,28.0583
2019-04-23T13:14:44.062Z,30.3822
2019-04-23T13:15:40.685Z,29.5460
2019-04-23T13:17:02.054Z,30.0481
2019-04-23T13:19:13.922Z,30.2785
2019-04-23T13:21:46.246Z,28.9036
2019-04-23T13:22:45.886Z,29.4499
2019-04-23T13:24:49.009Z,28.7205
2019-04-23T13:27:15.209Z,29.9977
2019-04-23T13:28:27.692Z,28.2780
2019-04-23T13:29:32.438Z,28.5801
2019-04-23T13:30:44.741Z,29.1234
2019-04-23T13:31:28.968Z,29.3080
2019-04-23T13:33:51.509Z,30.6538
2019-04-23T13:35:15.052Z,29.3263
2019-04-23T13:37:26.225Z,28.9509
2019-04-23T13:38:35.025Z,29.0410
2019-04-23T13:39:35.318Z,28.5786
2019-04-23T13:41:47.770Z,27.7546
2019-04-23T13:43:01.145Z,27.9652
2019-04-23T13:43:53.013Z,28.9784
2019-04-23T13:45:33.346Z,29.9931
2019-04-23T13:46:17.792Z,28.2353
2019-04-23T13:47:38.495Z,29.0517
2019-04-23T13:48:35.950Z,27.9835
2019-04-23T13:49:52.738Z,27.9011
2019-04-23T13:52:06.190Z,28.8167
2019-04-23T13:53:28.979Z,29.8512
2019-04-23T13:54:27.761Z,27.9576
2019-04-23T13:55:21.750Z,27.7241
2019-04-23T13:58:05.050Z,28.7037
2019-04-23T13:58:51.609Z,28.3604
2019-04-23T13:59:56.248Z,28.4459
2019-04-23T14:01:25.931Z,28.7724
2019-04-23T14:02:24.063Z,29.1936
2019-04-23T14:03:30.320Z,29.9168
2019-04-23T14:04:43.174Z,28.5527
2019-04-23T14:06:47.513Z,29.7932
2019-04-23T14:07:54.779Z,27.4952
2019-04-23T14:08:59.689Z,27.6905
2019-04-23T14:12:35.183Z,27.7638
2019-04-23T14:14:47.571Z,29.2103
2019-04-23T14:15:54.091Z,27.3381
2019-04-23T14:17:04.532Z,27.3808
2019-04-23T14:18:48.953Z,27.7333
2019-04-23T14:19:06.897Z,28.2582
2019-04-23T14:20:21.598Z,27.3533
2019-04-23T14:21:39.166Z,27.2511
2019-04-23T14:24:08.748Z,28.7434
2019-04-23T14:25:04.634Z,28.1483
2019-04-23T14:27:17.908Z,27.5364
2019-04-23T14:28:22.161Z,28.9693
2019-04-23T14:29:30.607Z,27.6951
2019-04-23T14:30:38.993Z,28.0858
2019-04-23T14:32:54.303Z,28.5023
2019-04-23T14:35:21.596Z,28.4245
2019-04-23T14:36:17.670Z,27.9698
2019-04-23T14:37:17.230Z,27.5074
2019-04-23T14:39:40.999Z,27.6265
2019-04-23T14:41:53.680Z,27.2251
2019-04-23T14:43:08.844Z,27.7150
2019-04-23T14:44:11.055Z,27.9881
2019-04-23T14:45:29.692Z,28.2597
2019-04-23T14:47:38.132Z,28.6976
2019-04-23T14:48:47.975Z,28.8808
2019-04-23T14:49:59.431Z,29.7246
2019-04-23T14:50:56.913Z,29.7322
2019-04-23T14:52:09.281Z,29.6315
2019-04-23T14:54:35.831Z,29.3172
2019-04-23T14:56:38.378Z,28.4733
2019-04-23T14:57:52.840Z,29.1966
2019-04-23T14:59:04.720Z,28.2216
2019-04-23T15:00:03.385Z,28.4703
2019-04-23T15:01:22.236Z,28.8045
2019-04-23T15:02:22.928Z,28.6305
2019-04-23T15:03:32.541Z,28.6015
2019-04-23T15:04:34.034Z,28.7999
2019-04-23T15:05:52.767Z,28.6992
2019-04-23T15:08:02.145Z,28.5328
2019-04-23T15:10:18.563Z,28.8548
2019-04-23T15:13:36.849Z,28.9097
2019-04-23T15:14:56.307Z,28.8319
2019-04-23T15:16:03.128Z,29.2195
2019-04-23T15:17:00.461Z,28.3680
2019-04-23T15:18:14.109Z,28.7221
2019-04-23T15:20:23.115Z,28.5283
2019-04-23T15:21:45.273Z,30.5241
2019-04-23T15:22:54.453Z,29.9199
2019-04-23T15:25:09.377Z,28.0201
2019-04-23T15:26:49.495Z,28.3589
2019-04-23T15:28:07.604Z,28.4047
2019-04-23T15:29:12.885Z,28.6656
2019-04-23T15:30:35.555Z,28.9631
2019-04-23T15:31:52.422Z,29.0684
2019-04-23T15:33:04.207Z,28.5847
2019-04-23T15:34:09.288Z,29.1478
2019-04-23T15:35:23.437Z,28.2261
2019-04-23T15:38:55.857Z,28.6656
2019-04-23T15:40:53.352Z,29.0318
2019-04-23T15:43:17.236Z,28.6152
2019-04-23T15:45:21.007Z,28.7480
2019-04-23T15:46:32.684Z,29.4179
2019-04-23T15:47:40.489Z,29.1188
2019-04-23T15:48:58.125Z,29.1096
2019-04-23T15:50:03.598Z,29.1249
2019-04-23T15:51:04.378Z,28.9693
2019-04-23T15:53:24.915Z,29.0593
2019-04-23T15:54:25.415Z,29.4270
2019-04-23T15:55:28.209Z,29.5262
2019-04-23T15:56:41.017Z,29.3309
2019-04-23T15:59:58.702Z,29.5949
2019-04-23T16:01:15.557Z,29.3584
2019-04-23T16:01:52.332Z,29.2393
2019-04-23T16:02:55.306Z,29.6132
2019-04-23T16:03:59.127Z,29.0196
2019-04-23T16:05:03.652Z,28.9219
2019-04-23T16:06:10.316Z,29.0929
2019-04-23T16:07:32.581Z,28.7617
2019-04-23T16:08:58.945Z,29.1615
2019-04-23T16:10:04.242Z,28.8319
2019-04-23T16:11:15.708Z,29.0867
2019-04-23T16:12:03.419Z,29.4408
2019-04-23T16:13:31.145Z,29.4484
2019-04-23T16:14:35.362Z,29.0684
2019-04-23T16:15:45.402Z,29.1569
2019-04-23T16:18:06.552Z,28.7587
2019-04-23T16:19:07.620Z,29.3385
2019-04-23T16:20:22.193Z,28.7266
2019-04-23T16:22:24.861Z,28.8762
2019-04-23T16:23:38.270Z,29.0822
2019-04-23T16:24:52.254Z,28.9097
2019-04-23T16:25:49.797Z,29.3446
2019-04-23T16:27:04.435Z,28.9403
2019-04-23T16:28:11.543Z,28.7907
2019-04-23T16:30:36.811Z,29.5735
2019-04-23T16:31:38.046Z,29.3263
2019-04-23T16:32:38.046Z,29.5415
2019-04-23T16:33:47.947Z,30.7530
2019-04-23T16:35:06.757Z,29.3584
2019-04-23T16:36:19.208Z,29.7551
2019-04-23T16:37:15.436Z,29.4316
2019-04-23T16:39:24.161Z,30.2693
2019-04-23T16:41:51.649Z,31.2581
2019-04-23T16:42:56.684Z,29.7841
2019-04-23T16:44:09.506Z,30.2739
2019-04-23T16:45:14.976Z,29.5811
2019-04-23T16:46:21.340Z,29.5094
2019-04-23T16:47:24.223Z,29.6498
2019-04-23T16:48:44.093Z,29.4072
2019-04-23T16:49:48.020Z,29.9443
2019-04-23T16:51:54.184Z,31.0201
2019-04-23T16:53:11.568Z,28.5100
2019-04-23T16:54:14.124Z,28.7572
2019-04-23T16:55:19.963Z,28.9921
2019-04-23T17:00:08.190Z,29.0044
2019-04-23T17:01:07.262Z,29.2607
2019-04-23T17:02:17.617Z,28.7114
2019-04-23T17:03:28.954Z,29.1707
2019-04-23T17:04:24.310Z,28.6976
2019-04-23T17:05:33.327Z,29.5949
2019-04-23T17:06:35.812Z,28.6793
2019-04-23T17:08:08.365Z,29.5720